Time,TemperatureF,DewpointF,PressureIn,WindDirection,WindDirectionDegrees,WindSpeedMPH,WindSpeedGustMPH,Humidity,HourlyPrecipIn,Conditions,Clouds,dailyrainin,SoftwareType,DateUTC
2013-03-16 00:09:00,45.7,42.0,29.66,North,5,0.0,4.0,88,0.00,,,0.00,weatherlink.com 1.10,2013-03-16 05:09:00,
2013-03-16 00:24:00,45.9,43.0,29.66,NNE,15,0.0,1.0,88,0.00,,,0.00,weatherlink.com 1.10,2013-03-16 05:24:00,
2013-03-16 00:39:00,45.6,42.0,29.66,NNE,15,0.0,3.0,88,0.00,,,0.00,weatherlink.com 1.10,2013-03-16 05:39:00,
2013-03-16 00:54:00,45.5,43.0,29.65,NNE,15,0.0,1.0,89,0.00,,,0.00,weatherlink.com 1.10,2013-03-16 05:54:00,
2013-03-16 01:09:00,45.4,42.0,29.65,NNW,342,3.0,3.0,89,0.00,,,0.00,weatherlink.com 1.10,2013-03-16 06:09:00,
2013-03-16 01:24:00,45.0,42.0,29.66,North,355,0.0,9.0,89,0.00,,,0.00,weatherlink.com 1.10,2013-03-16 06:24:00,
2013-03-16 01:40:00,44.6,42.0,29.67,North,355,5.0,8.0,90,0.00,,,0.00,weatherlink.com 1.10,2013-03-16 06:40:00,
2013-03-16 01:55:00,44.3,42.0,29.67,North,360,2.0,9.0,90,0.00,,,0.00,weatherlink.com 1.10,2013-03-16 06:55:00,
2013-03-16 02:10:00,43.6,41.0,29.68,North,355,6.0,7.0,91,0.00,,,0.00,weatherlink.com 1.10,2013-03-16 07:10:00,
2013-03-16 02:25:00,43.1,41.0,29.68,NNW,345,5.0,7.0,91,0.00,,,0.00,weatherlink.com 1.10,2013-03-16 07:25:00,
2013-03-16 02:40:00,42.7,40.0,29.69,NNW,344,6.0,7.0,91,0.00,,,0.00,weatherlink.com 1.10,2013-03-16 07:40:00,
2013-03-16 02:55:00,41.6,39.0,29.70,NNW,346,4.0,6.0,91,0.00,,,0.00,weatherlink.com 1.10,2013-03-16 07:55:00,
2013-03-16 03:10:00,40.9,39.0,29.70,NNW,347,6.0,8.0,92,0.00,,,0.00,weatherlink.com 1.10,2013-03-16 08:10:00,
2013-03-16 03:25:00,40.2,38.0,29.70,North,355,5.0,10.0,92,0.00,,,0.00,weatherlink.com 1.10,2013-03-16 08:25:00,
2013-03-16 03:40:00,39.7,38.0,29.72,NNE,12,6.0,10.0,93,0.00,,,0.00,weatherlink.com 1.10,2013-03-16 08:40:00,
2013-03-16 03:55:00,39.2,38.0,29.72,NNW,343,8.0,12.0,94,0.00,,,0.00,weatherlink.com 1.10,2013-03-16 08:55:00,
2013-03-16 04:10:00,38.6,37.0,29.71,NNW,331,9.0,15.0,94,0.00,,,0.00,weatherlink.com 1.10,2013-03-16 09:10:00,
2013-03-16 04:25:00,38.3,37.0,29.72,North,360,7.0,16.0,95,0.00,,,0.00,weatherlink.com 1.10,2013-03-16 09:25:00,
2013-03-16 04:40:00,37.9,37.0,29.73,NNW,338,7.0,12.0,95,0.00,,,0.00,weatherlink.com 1.10,2013-03-16 09:40:00,
2013-03-16 04:55:00,37.3,36.0,29.74,NNW,346,8.0,12.0,95,0.00,,,0.00,weatherlink.com 1.10,2013-03-16 09:55:00,
2013-03-16 05:10:00,36.6,36.0,29.75,NNW,328,7.0,16.0,96,0.00,,,0.00,weatherlink.com 1.10,2013-03-16 10:10:00,
2013-03-16 05:25:00,35.9,35.0,29.77,NNW,343,8.0,13.0,96,0.00,,,0.00,weatherlink.com 1.10,2013-03-16 10:25:00,
2013-03-16 05:40:00,35.7,35.0,29.78,NNW,331,10.0,11.0,96,0.00,,,0.00,weatherlink.com 1.10,2013-03-16 10:40:00,
2013-03-16 05:55:00,35.4,35.0,29.79,North,355,9.0,11.0,97,0.00,,,0.00,weatherlink.com 1.10,2013-03-16 10:55:00,
2013-03-16 06:10:00,35.2,35.0,29.80,NNW,331,5.0,14.0,97,0.00,,,0.00,weatherlink.com 1.10,2013-03-16 11:10:00,
2013-03-16 06:25:00,35.1,34.0,29.82,NW,317,7.0,14.0,97,0.00,,,0.00,weatherlink.com 1.10,2013-03-16 11:25:00,
2013-03-16 06:40:00,34.9,34.0,29.82,NNW,338,10.0,14.0,97,0.00,,,0.00,weatherlink.com 1.10,2013-03-16 11:40:00,
2013-03-16 06:58:00,34.9,34.0,29.84,NNW,335,5.0,11.0,97,0.00,,,0.00,weatherlink.com 1.10,2013-03-16 11:58:00,
2013-03-16 07:11:00,34.8,34.0,29.85,NNW,334,3.0,14.0,97,0.00,,,0.00,weatherlink.com 1.10,2013-03-16 12:11:00,
2013-03-16 07:26:00,34.6,34.0,29.86,North,349,4.0,12.0,97,0.00,,,0.00,weatherlink.com 1.10,2013-03-16 12:26:00,
2013-03-16 07:41:00,34.6,34.0,29.86,NW,319,7.0,13.0,97,0.00,,,0.00,weatherlink.com 1.10,2013-03-16 12:41:00,
2013-03-16 07:56:00,34.7,34.0,29.88,NW,324,7.0,10.0,97,0.00,,,0.00,weatherlink.com 1.10,2013-03-16 12:56:00,
2013-03-16 08:11:00,34.7,34.0,29.89,NNE,30,5.0,11.0,97,0.00,,,0.00,weatherlink.com 1.10,2013-03-16 13:11:00,
2013-03-16 08:41:00,35.3,35.0,29.92,NNW,345,6.0,11.0,97,0.00,,,0.00,weatherlink.com 1.10,2013-03-16 13:41:00,
2013-03-16 08:56:00,35.6,35.0,29.93,NW,315,12.0,13.0,97,0.00,,,0.00,weatherlink.com 1.10,2013-03-16 13:56:00,
2013-03-16 09:11:00,35.7,35.0,29.94,North,355,9.0,14.0,96,0.00,,,0.00,weatherlink.com 1.10,2013-03-16 14:11:00,
2013-03-16 09:26:00,35.6,35.0,29.93,North,355,9.0,16.0,96,0.00,,,0.00,weatherlink.com 1.10,2013-03-16 14:26:00,
2013-03-16 09:41:00,35.5,35.0,29.95,West,279,5.0,15.0,96,0.00,,,0.00,weatherlink.com 1.10,2013-03-16 14:41:00,
2013-03-16 09:56:00,35.5,35.0,29.95,North,355,6.0,14.0,96,0.00,,,0.00,weatherlink.com 1.10,2013-03-16 14:56:00,
2013-03-16 10:11:00,35.6,35.0,29.95,NNW,344,8.0,17.0,96,0.00,,,0.00,weatherlink.com 1.10,2013-03-16 15:11:00,
2013-03-16 10:26:00,35.4,35.0,29.96,NNW,340,14.0,19.0,97,0.00,,,0.00,weatherlink.com 1.10,2013-03-16 15:26:00,
2013-03-16 10:41:00,35.8,35.0,29.97,North,9,4.0,15.0,96,0.00,,,0.00,weatherlink.com 1.10,2013-03-16 15:41:00,
2013-03-16 10:56:00,36.3,35.0,29.97,North,355,12.0,16.0,94,0.00,,,0.00,weatherlink.com 1.10,2013-03-16 15:56:00,
2013-03-16 11:26:00,36.4,35.0,29.98,NW,321,13.0,16.0,93,0.00,,,0.00,weatherlink.com 1.10,2013-03-16 16:26:00,
2013-03-16 11:56:00,37.4,35.0,29.99,North,355,7.0,18.0,89,0.00,,,0.00,weatherlink.com 1.10,2013-03-16 16:56:00,
2013-03-16 12:11:00,37.8,35.0,30.00,NNW,340,11.0,16.0,88,0.00,,,0.00,weatherlink.com 1.10,2013-03-16 17:11:00,
2013-03-16 12:56:00,39.5,34.0,30.02,North,360,12.0,13.0,82,0.00,,,0.00,weatherlink.com 1.10,2013-03-16 17:56:00,
2013-03-16 13:13:00,40.6,35.0,30.02,North,349,14.0,14.0,80,0.00,,,0.00,weatherlink.com 1.10,2013-03-16 18:13:00,
2013-03-16 13:26:00,40.5,34.0,30.02,NE,35,9.0,17.0,76,0.00,,,0.00,weatherlink.com 1.10,2013-03-16 18:26:00,
2013-03-16 13:41:00,40.2,34.0,30.02,NNE,17,7.0,14.0,77,0.00,,,0.00,weatherlink.com 1.10,2013-03-16 18:41:00,
2013-03-16 13:56:00,40.1,33.0,30.03,NNW,344,9.0,15.0,76,0.00,,,0.00,weatherlink.com 1.10,2013-03-16 18:56:00,
2013-03-16 14:11:00,40.0,34.0,30.03,North,5,4.0,14.0,78,0.00,,,0.00,weatherlink.com 1.10,2013-03-16 19:11:00,
2013-03-16 14:41:00,40.3,33.0,30.04,NNW,346,7.0,10.0,76,0.00,,,0.00,weatherlink.com 1.10,2013-03-16 19:41:00,
2013-03-16 14:56:00,40.1,33.0,30.03,NNW,329,7.0,12.0,76,0.00,,,0.00,weatherlink.com 1.10,2013-03-16 19:56:00,
2013-03-16 15:12:00,40.0,33.0,30.04,North,355,5.0,10.0,77,0.00,,,0.00,weatherlink.com 1.10,2013-03-16 20:12:00,
2013-03-16 15:26:00,39.3,33.0,30.03,North,5,10.0,13.0,78,0.00,,,0.00,weatherlink.com 1.10,2013-03-16 20:26:00,
2013-03-16 15:41:00,39.2,33.0,30.04,NNW,348,7.0,11.0,78,0.00,,,0.00,weatherlink.com 1.10,2013-03-16 20:41:00,
2013-03-16 15:57:00,39.0,33.0,30.04,North,355,6.0,10.0,78,0.00,,,0.00,weatherlink.com 1.10,2013-03-16 20:57:00,
2013-03-16 16:12:00,39.0,33.0,30.05,NNW,342,6.0,9.0,78,0.00,,,0.00,weatherlink.com 1.10,2013-03-16 21:12:00,
2013-03-16 16:27:00,38.6,31.0,30.04,NE,44,5.0,9.0,75,0.00,,,0.00,weatherlink.com 1.10,2013-03-16 21:27:00,
2013-03-16 16:42:00,38.2,31.0,30.05,NNE,16,6.0,10.0,75,0.00,,,0.00,weatherlink.com 1.10,2013-03-16 21:42:00,
2013-03-16 16:57:00,38.4,31.0,30.05,North,5,7.0,10.0,76,0.00,,,0.00,weatherlink.com 1.10,2013-03-16 21:57:00,
2013-03-16 17:12:00,38.4,32.0,30.05,North,355,6.0,7.0,77,0.00,,,0.00,weatherlink.com 1.10,2013-03-16 22:12:00,
2013-03-16 17:27:00,38.3,31.0,30.05,NNE,19,2.0,8.0,75,0.00,,,0.00,weatherlink.com 1.10,2013-03-16 22:27:00,
2013-03-16 17:42:00,38.2,31.0,30.05,North,360,8.0,9.0,74,0.00,,,0.00,weatherlink.com 1.10,2013-03-16 22:42:00,
2013-03-16 17:57:00,38.1,31.0,30.05,NNW,344,4.0,9.0,74,0.00,,,0.00,weatherlink.com 1.10,2013-03-16 22:57:00,
2013-03-16 18:27:00,37.9,30.0,30.07,NNE,25,4.0,7.0,73,0.00,,,0.00,weatherlink.com 1.10,2013-03-16 23:27:00,
2013-03-16 18:42:00,37.7,30.0,30.07,NE,49,3.0,5.0,73,0.00,,,0.00,weatherlink.com 1.10,2013-03-16 23:42:00,
2013-03-16 18:57:00,37.5,30.0,30.08,NNE,13,4.0,7.0,74,0.00,,,0.00,weatherlink.com 1.10,2013-03-16 23:57:00,
2013-03-16 19:12:00,37.2,30.0,30.09,North,5,3.0,6.0,76,0.00,,,0.00,weatherlink.com 1.10,2013-03-17 00:12:00,
2013-03-16 19:27:00,37.0,30.0,30.09,North,360,1.0,4.0,76,0.00,,,0.00,weatherlink.com 1.10,2013-03-17 00:27:00,
2013-03-16 19:42:00,36.8,30.0,30.09,NNW,342,4.0,7.0,76,0.00,,,0.00,weatherlink.com 1.10,2013-03-17 00:42:00,
2013-03-16 19:57:00,36.6,29.0,30.10,North,5,5.0,7.0,75,0.00,,,0.00,weatherlink.com 1.10,2013-03-17 00:57:00,
2013-03-16 20:12:00,36.5,29.0,30.10,North,355,4.0,7.0,75,0.00,,,0.00,weatherlink.com 1.10,2013-03-17 01:12:00,
2013-03-16 20:28:00,36.4,29.0,30.11,North,11,5.0,9.0,75,0.00,,,0.00,weatherlink.com 1.10,2013-03-17 01:28:00,
2013-03-16 20:42:00,36.1,29.0,30.11,NNE,15,1.0,7.0,76,0.00,,,0.00,weatherlink.com 1.10,2013-03-17 01:42:00,
2013-03-16 20:57:00,36.0,29.0,30.11,NNE,17,3.0,5.0,76,0.00,,,0.00,weatherlink.com 1.10,2013-03-17 01:57:00,
2013-03-16 21:12:00,35.9,29.0,30.11,NNE,21,0.0,4.0,77,0.00,,,0.00,weatherlink.com 1.10,2013-03-17 02:12:00,
2013-03-16 21:27:00,35.7,29.0,30.11,NNE,14,1.0,2.0,77,0.00,,,0.00,weatherlink.com 1.10,2013-03-17 02:27:00,
2013-03-16 21:42:00,35.5,29.0,30.11,NE,34,1.0,4.0,76,0.00,,,0.00,weatherlink.com 1.10,2013-03-17 02:42:00,
2013-03-16 21:57:00,35.3,28.0,30.11,North,360,3.0,4.0,76,0.00,,,0.00,weatherlink.com 1.10,2013-03-17 02:57:00,
2013-03-16 22:12:00,35.0,28.0,30.12,NE,54,0.0,5.0,76,0.00,,,0.00,weatherlink.com 1.10,2013-03-17 03:12:00,
2013-03-16 22:27:00,34.7,28.0,30.12,NNE,19,0.0,4.0,77,0.00,,,0.00,weatherlink.com 1.10,2013-03-17 03:27:00,
2013-03-16 22:42:00,34.6,28.0,30.12,ENE,64,0.0,4.0,77,0.00,,,0.00,weatherlink.com 1.10,2013-03-17 03:42:00,
2013-03-16 22:57:00,34.4,28.0,30.12,NNE,28,1.0,2.0,78,0.00,,,0.00,weatherlink.com 1.10,2013-03-17 03:57:00,
2013-03-16 23:27:00,33.9,28.0,30.12,NNE,17,1.0,3.0,79,0.00,,,0.00,weatherlink.com 1.10,2013-03-17 04:27:00,
2013-03-16 23:42:00,33.9,28.0,30.13,NNE,17,2.0,6.0,79,0.00,,,0.00,weatherlink.com 1.10,2013-03-17 04:42:00,
2013-03-16 23:57:00,33.8,28.0,30.12,North,5,0.0,6.0,80,0.00,,,0.00,weatherlink.com 1.10,2013-03-17 04:57:00,